Time;durP1;ratioP1;P1;durP2;ratioP2;P2;SDS_P1;SDS_P2;PMS_P1;PMS_P2;Temp;Humidity;BMP_temperature;BMP_pressure;BME280_temperature;BME280_humidity;BME280_pressure;Samples;Min_cycle;Max_cycle;Signal;HPM_P1;HPM_P2
2019/09/06 00:00:55;;;;;;;4.05;3.1;;;;;;;10.87;100;95861.27;;;;
2019/09/06 00:01:59;;;;;;;4.05;3.1;;;;;;;10.87;100;95861.27;;;;
2019/09/06 00:03:00;;;;;;;4.05;3.1;;;;;;;10.87;100;95861.27;;;;
2019/09/06 00:04:01;;;;;;;4.05;3.1;;;;;;;10.87;100;95861.27;;;;
2019/09/06 00:05:03;;;;;;;4.299999;3.2;;;;;;;10.89;100;95871.22;;;;
2019/09/06 00:06:05;;;;;;;4.299999;3.2;;;;;;;10.89;100;95871.22;;;;
2019/09/06 00:07:07;;;;;;;4.299999;3.2;;;;;;;10.89;100;95871.22;;;;
2019/09/06 00:08:09;;;;;;;4.299999;3.2;;;;;;;10.89;100;95871.22;;;;
2019/09/06 00:09:10;;;;;;;4.299999;3.2;;;;;;;10.89;100;95871.22;;;;
2019/09/06 00:10:12;;;;;;;4.299999;3.2;;;;;;;10.89;100;95871.22;;;;
2019/09/06 00:11:13;;;;;;;4.299999;3.2;;;;;;;10.89;100;95871.22;;;;
2019/09/06 00:12:15;;;;;;;4.299999;3.2;;;;;;;10.89;100;95871.22;;;;
2019/09/06 00:13:16;;;;;;;4.299999;3.2;;;;;;;10.89;100;95871.22;;;;
2019/09/06 00:14:17;;;;;;;4.299999;3.2;;;;;;;10.89;100;95871.22;;;;
2019/09/06 00:15:18;;;;;;;3.6;2.95;;;;;;;10.88;100;95864.15;;;;
2019/09/06 00:16:21;;;;;;;3.6;2.95;;;;;;;10.88;100;95864.15;;;;
2019/09/06 00:17:22;;;;;;;3.6;2.95;;;;;;;10.88;100;95864.15;;;;
2019/09/06 00:18:23;;;;;;;3.6;2.95;;;;;;;10.88;100;95864.15;;;;
2019/09/06 00:19:24;;;;;;;3.6;2.95;;;;;;;10.88;100;95864.15;;;;
2019/09/06 00:20:25;;;;;;;3.6;2.95;;;;;;;10.88;100;95864.15;;;;
2019/09/06 00:21:27;;;;;;;3.6;2.95;;;;;;;10.88;100;95864.15;;;;
2019/09/06 00:22:28;;;;;;;3.6;2.95;;;;;;;10.88;100;95864.15;;;;
2019/09/06 00:23:30;;;;;;;3.6;2.95;;;;;;;10.88;100;95864.15;;;;
2019/09/06 00:24:31;;;;;;;3.6;2.95;;;;;;;10.88;100;95864.15;;;;
2019/09/06 00:25:32;;;;;;;3.6;2.95;;;;;;;10.88;100;95864.15;;;;
2019/09/06 00:26:35;;;;;;;4.85;3.1;;;;;;;10.92;100;95852.78;;;;
2019/09/06 00:27:36;;;;;;;4.85;3.1;;;;;;;10.92;100;95852.78;;;;
2019/09/06 00:28:37;;;;;;;4.85;3.1;;;;;;;10.92;100;95852.78;;;;
2019/09/06 00:29:39;;;;;;;4.85;3.1;;;;;;;10.92;100;95852.78;;;;
2019/09/06 00:30:40;;;;;;;4.85;3.1;;;;;;;10.92;100;95852.78;;;;
2019/09/06 00:31:43;;;;;;;4.85;3.1;;;;;;;10.92;100;95852.78;;;;
2019/09/06 00:32:44;;;;;;;4.85;3.1;;;;;;;10.92;100;95852.78;;;;
2019/09/06 00:33:45;;;;;;;4.85;3.1;;;;;;;10.92;100;95852.78;;;;
2019/09/06 00:34:46;;;;;;;4.85;3.1;;;;;;;10.92;100;95852.78;;;;
2019/09/06 00:35:47;;;;;;;4.85;3.1;;;;;;;10.92;100;95852.78;;;;
2019/09/06 00:36:49;;;;;;;5.15;3.6;;;;;;;10.9;100;95860.71;;;;
2019/09/06 00:37:50;;;;;;;5.15;3.6;;;;;;;10.9;100;95860.71;;;;
2019/09/06 00:38:51;;;;;;;5.15;3.6;;;;;;;10.9;100;95860.71;;;;
2019/09/06 00:39:52;;;;;;;5.15;3.6;;;;;;;10.9;100;95860.71;;;;
2019/09/06 00:40:53;;;;;;;5.15;3.6;;;;;;;10.9;100;95860.71;;;;
2019/09/06 00:41:56;;;;;;;5.15;3.6;;;;;;;10.9;100;95860.71;;;;
2019/09/06 00:42:57;;;;;;;5.15;3.6;;;;;;;10.9;100;95860.71;;;;
2019/09/06 00:43:58;;;;;;;5.15;3.6;;;;;;;10.9;100;95860.71;;;;
2019/09/06 00:44:59;;;;;;;5.15;3.6;;;;;;;10.9;100;95860.71;;;;
2019/09/06 00:46:01;;;;;;;5.15;3.6;;;;;;;10.9;100;95860.71;;;;
2019/09/06 00:47:02;;;;;;;4.75;3.2;;;;;;;10.98;100;95860.42;;;;
2019/09/06 00:48:03;;;;;;;4.75;3.2;;;;;;;10.98;100;95860.42;;;;
2019/09/06 00:49:05;;;;;;;4.75;3.2;;;;;;;10.98;100;95860.42;;;;
2019/09/06 00:50:06;;;;;;;4.75;3.2;;;;;;;10.98;100;95860.42;;;;
2019/09/06 00:51:08;;;;;;;4.75;3.2;;;;;;;10.98;100;95860.42;;;;
2019/09/06 00:52:09;;;;;;;4.75;3.2;;;;;;;10.98;100;95860.42;;;;
2019/09/06 00:53:10;;;;;;;4.75;3.2;;;;;;;10.98;100;95860.42;;;;
2019/09/06 00:54:11;;;;;;;4.75;3.2;;;;;;;10.98;100;95860.42;;;;
2019/09/06 00:55:13;;;;;;;4.75;3.2;;;;;;;10.98;100;95860.42;;;;
2019/09/06 00:56:15;;;;;;;4.75;3.2;;;;;;;10.98;100;95860.42;;;;
2019/09/06 00:57:16;;;;;;;4.75;3.2;;;;;;;10.98;100;95860.42;;;;
2019/09/06 00:58:17;;;;;;;4.699999;3.75;;;;;;;10.98;100;95867.18;;;;
2019/09/06 00:59:19;;;;;;;4.699999;3.75;;;;;;;10.98;100;95867.18;;;;
2019/09/06 01:00:20;;;;;;;4.699999;3.75;;;;;;;10.98;100;95867.18;;;;
2019/09/06 01:01:22;;;;;;;4.699999;3.75;;;;;;;10.98;100;95867.18;;;;
2019/09/06 01:02:23;;;;;;;4.699999;3.75;;;;;;;10.98;100;95867.18;;;;
2019/09/06 01:03:25;;;;;;;4.699999;3.75;;;;;;;10.98;100;95867.18;;;;
2019/09/06 01:04:26;;;;;;;4.699999;3.75;;;;;;;10.98;100;95867.18;;;;
2019/09/06 01:05:28;;;;;;;4.699999;3.75;;;;;;;10.98;100;95867.18;;;;
2019/09/06 01:06:30;;;;;;;4.699999;3.75;;;;;;;10.98;100;95867.18;;;;
2019/09/06 01:07:31;;;;;;;4.699999;3.75;;;;;;;10.98;100;95867.18;;;;
2019/09/06 01:08:33;;;;;;;4.300001;3.7;;;;;;;11.04;100;95864.53;;;;
2019/09/06 01:09:36;;;;;;;4.300001;3.7;;;;;;;11.04;100;95864.53;;;;
2019/09/06 01:10:38;;;;;;;4.300001;3.7;;;;;;;11.04;100;95864.53;;;;
2019/09/06 01:11:42;;;;;;;4.300001;3.7;;;;;;;11.04;100;95864.53;;;;
2019/09/06 01:12:44;;;;;;;4.300001;3.7;;;;;;;11.04;100;95864.53;;;;
2019/09/06 01:13:45;;;;;;;4.300001;3.7;;;;;;;11.04;100;95864.53;;;;
2019/09/06 01:14:46;;;;;;;4.300001;3.7;;;;;;;11.04;100;95864.53;;;;
2019/09/06 01:15:48;;;;;;;4.300001;3.7;;;;;;;11.04;100;95864.53;;;;
2019/09/06 01:16:49;;;;;;;4.300001;3.7;;;;;;;11.04;100;95864.53;;;;
2019/09/06 01:17:51;;;;;;;4.300001;3.7;;;;;;;11.04;100;95864.53;;;;
2019/09/06 01:18:52;;;;;;;3.65;3.25;;;;;;;11.01;100;95854.69;;;;
2019/09/06 01:19:54;;;;;;;3.65;3.25;;;;;;;11.01;100;95854.69;;;;
2019/09/06 01:20:55;;;;;;;3.65;3.25;;;;;;;11.01;100;95854.69;;;;
2019/09/06 01:21:57;;;;;;;3.65;3.25;;;;;;;11.01;100;95854.69;;;;
2019/09/06 01:22:58;;;;;;;3.65;3.25;;;;;;;11.01;100;95854.69;;;;
2019/09/06 01:23:59;;;;;;;3.65;3.25;;;;;;;11.01;100;95854.69;;;;
2019/09/06 01:25:01;;;;;;;3.65;3.25;;;;;;;11.01;100;95854.69;;;;
2019/09/06 01:26:02;;;;;;;3.65;3.25;;;;;;;11.01;100;95854.69;;;;
2019/09/06 01:27:04;;;;;;;3.65;3.25;;;;;;;11.01;100;95854.69;;;;
2019/09/06 01:28:05;;;;;;;3.65;3.25;;;;;;;11.01;100;95854.69;;;;
2019/09/06 01:29:17;;;;;;;3.7;3.25;;;;;;;11.04;100;95861.83;;;;
2019/09/06 01:30:19;;;;;;;3.7;3.25;;;;;;;11.04;100;95861.83;;;;
2019/09/06 01:31:20;;;;;;;3.7;3.25;;;;;;;11.04;100;95861.83;;;;
2019/09/06 01:32:22;;;;;;;3.7;3.25;;;;;;;11.04;100;95861.83;;;;
2019/09/06 01:33:23;;;;;;;3.7;3.25;;;;;;;11.04;100;95861.83;;;;
2019/09/06 01:34:25;;;;;;;3.7;3.25;;;;;;;11.04;100;95861.83;;;;
2019/09/06 01:35:26;;;;;;;3.7;3.25;;;;;;;11.04;100;95861.83;;;;
2019/09/06 01:36:28;;;;;;;3.7;3.25;;;;;;;11.04;100;95861.83;;;;
2019/09/06 01:37:29;;;;;;;3.7;3.25;;;;;;;11.04;100;95861.83;;;;
2019/09/06 01:38:30;;;;;;;3.7;3.25;;;;;;;11.04;100;95861.83;;;;
2019/09/06 01:39:32;;;;;;;3.7;3.25;;;;;;;11.04;100;95861.83;;;;
2019/09/06 01:40:33;;;;;;;4.7;3.8;;;;;;;11.05;100;95843.71;;;;
2019/09/06 01:41:34;;;;;;;4.7;3.8;;;;;;;11.05;100;95843.71;;;;
2019/09/06 01:42:35;;;;;;;4.7;3.8;;;;;;;11.05;100;95843.71;;;;
2019/09/06 01:43:36;;;;;;;4.7;3.8;;;;;;;11.05;100;95843.71;;;;
2019/09/06 01:44:38;;;;;;;4.7;3.8;;;;;;;11.05;100;95843.71;;;;
2019/09/06 01:45:39;;;;;;;4.7;3.8;;;;;;;11.05;100;95843.71;;;;
2019/09/06 01:46:42;;;;;;;4.7;3.8;;;;;;;11.05;100;95843.71;;;;
2019/09/06 01:47:43;;;;;;;4.7;3.8;;;;;;;11.05;100;95843.71;;;;
2019/09/06 01:48:45;;;;;;;4.7;3.8;;;;;;;11.05;100;95843.71;;;;
2019/09/06 01:49:46;;;;;;;4.7;3.8;;;;;;;11.05;100;95843.71;;;;
2019/09/06 01:50:47;;;;;;;5.749999;4.15;;;;;;;11.07;100;95842.97;;;;
2019/09/06 01:51:49;;;;;;;5.749999;4.15;;;;;;;11.07;100;95842.97;;;;
2019/09/06 01:52:50;;;;;;;5.749999;4.15;;;;;;;11.07;100;95842.97;;;;
2019/09/06 01:53:51;;;;;;;5.749999;4.15;;;;;;;11.07;100;95842.97;;;;
2019/09/06 01:54:52;;;;;;;5.749999;4.15;;;;;;;11.07;100;95842.97;;;;
2019/09/06 01:55:54;;;;;;;5.749999;4.15;;;;;;;11.07;100;95842.97;;;;
2019/09/06 01:56:55;;;;;;;5.749999;4.15;;;;;;;11.07;100;95842.97;;;;
2019/09/06 01:57:56;;;;;;;5.749999;4.15;;;;;;;11.07;100;95842.97;;;;
2019/09/06 01:58:57;;;;;;;5.749999;4.15;;;;;;;11.07;100;95842.97;;;;
2019/09/06 01:59:59;;;;;;;5.749999;4.15;;;;;;;11.07;100;95842.97;;;;
2019/09/06 02:01:00;;;;;;;5.749999;4.15;;;;;;;11.07;100;95842.97;;;;
2019/09/06 02:02:01;;;;;;;6.35;4.550001;;;;;;;11.02;100;95830.56;;;;
2019/09/06 02:03:03;;;;;;;6.35;4.550001;;;;;;;11.02;100;95830.56;;;;
2019/09/06 02:04:04;;;;;;;6.35;4.550001;;;;;;;11.02;100;95830.56;;;;
2019/09/06 02:05:05;;;;;;;6.35;4.550001;;;;;;;11.02;100;95830.56;;;;
2019/09/06 02:06:07;;;;;;;6.35;4.550001;;;;;;;11.02;100;95830.56;;;;
2019/09/06 02:07:09;;;;;;;6.35;4.550001;;;;;;;11.02;100;95830.56;;;;
2019/09/06 02:08:10;;;;;;;6.35;4.550001;;;;;;;11.02;100;95830.56;;;;
2019/09/06 02:09:11;;;;;;;6.35;4.550001;;;;;;;11.02;100;95830.56;;;;
2019/09/06 02:10:12;;;;;;;6.35;4.550001;;;;;;;11.02;100;95830.56;;;;
2019/09/06 02:11:15;;;;;;;6.35;4.550001;;;;;;;11.02;100;95830.56;;;;
2019/09/06 02:12:16;;;;;;;5.199999;4.55;;;;;;;11.02;100;95832.84;;;;
2019/09/06 02:13:17;;;;;;;5.199999;4.55;;;;;;;11.02;100;95832.84;;;;
2019/09/06 02:14:19;;;;;;;5.199999;4.55;;;;;;;11.02;100;95832.84;;;;
2019/09/06 02:15:20;;;;;;;5.199999;4.55;;;;;;;11.02;100;95832.84;;;;
2019/09/06 02:16:23;;;;;;;5.199999;4.55;;;;;;;11.02;100;95832.84;;;;
2019/09/06 02:17:24;;;;;;;5.199999;4.55;;;;;;;11.02;100;95832.84;;;;
2019/09/06 02:18:25;;;;;;;5.199999;4.55;;;;;;;11.02;100;95832.84;;;;
2019/09/06 02:19:26;;;;;;;5.199999;4.55;;;;;;;11.02;100;95832.84;;;;
2019/09/06 02:20:27;;;;;;;5.199999;4.55;;;;;;;11.02;100;95832.84;;;;
2019/09/06 02:21:29;;;;;;;5.199999;4.55;;;;;;;11.02;100;95832.84;;;;
2019/09/06 02:22:30;;;;;;;5.5;4.25;;;;;;;10.96;100;95835.5;;;;
2019/09/06 02:23:32;;;;;;;5.5;4.25;;;;;;;10.96;100;95835.5;;;;
2019/09/06 02:24:33;;;;;;;5.5;4.25;;;;;;;10.96;100;95835.5;;;;
2019/09/06 02:25:34;;;;;;;5.5;4.25;;;;;;;10.96;100;95835.5;;;;
2019/09/06 02:26:36;;;;;;;5.5;4.25;;;;;;;10.96;100;95835.5;;;;
2019/09/06 02:27:37;;;;;;;5.5;4.25;;;;;;;10.96;100;95835.5;;;;
2019/09/06 02:28:38;;;;;;;5.5;4.25;;;;;;;10.96;100;95835.5;;;;
2019/09/06 02:29:40;;;;;;;5.5;4.25;;;;;;;10.96;100;95835.5;;;;
2019/09/06 02:30:41;;;;;;;5.5;4.25;;;;;;;10.96;100;95835.5;;;;
2019/09/06 02:31:42;;;;;;;5.5;4.25;;;;;;;10.96;100;95835.5;;;;
2019/09/06 02:32:43;;;;;;;5.5;4.25;;;;;;;10.96;100;95835.5;;;;
2019/09/06 02:33:44;;;;;;;7.949998;4.349999;;;;;;;11;100;95837.64;;;;
2019/09/06 02:34:46;;;;;;;7.949998;4.349999;;;;;;;11;100;95837.64;;;;
2019/09/06 02:35:47;;;;;;;7.949998;4.349999;;;;;;;11;100;95837.64;;;;
2019/09/06 02:36:48;;;;;;;7.949998;4.349999;;;;;;;11;100;95837.64;;;;
2019/09/06 02:37:49;;;;;;;7.949998;4.349999;;;;;;;11;100;95837.64;;;;
2019/09/06 02:38:50;;;;;;;7.949998;4.349999;;;;;;;11;100;95837.64;;;;
2019/09/06 02:39:51;;;;;;;7.949998;4.349999;;;;;;;11;100;95837.64;;;;
2019/09/06 02:40:52;;;;;;;7.949998;4.349999;;;;;;;11;100;95837.64;;;;
2019/09/06 02:41:54;;;;;;;7.949998;4.349999;;;;;;;11;100;95837.64;;;;
2019/09/06 02:42:56;;;;;;;7.949998;4.349999;;;;;;;11;100;95837.64;;;;
2019/09/06 02:43:57;;;;;;;5.150001;4.65;;;;;;;10.97;100;95824.98;;;;
2019/09/06 02:44:58;;;;;;;5.150001;4.65;;;;;;;10.97;100;95824.98;;;;
2019/09/06 02:45:59;;;;;;;5.150001;4.65;;;;;;;10.97;100;95824.98;;;;
2019/09/06 02:47:00;;;;;;;5.150001;4.65;;;;;;;10.97;100;95824.98;;;;
2019/09/06 02:48:01;;;;;;;5.150001;4.65;;;;;;;10.97;100;95824.98;;;;
2019/09/06 02:49:03;;;;;;;5.150001;4.65;;;;;;;10.97;100;95824.98;;;;
2019/09/06 02:50:04;;;;;;;5.150001;4.65;;;;;;;10.97;100;95824.98;;;;
2019/09/06 02:51:06;;;;;;;5.150001;4.65;;;;;;;10.97;100;95824.98;;;;
2019/09/06 02:52:07;;;;;;;5.150001;4.65;;;;;;;10.97;100;95824.98;;;;
2019/09/06 02:53:08;;;;;;;5.150001;4.65;;;;;;;10.97;100;95824.98;;;;
2019/09/06 02:54:09;;;;;;;5.45;4.7;;;;;;;11.02;100;95837.42;;;;
2019/09/06 02:55:10;;;;;;;5.45;4.7;;;;;;;11.02;100;95837.42;;;;
2019/09/06 02:56:12;;;;;;;5.45;4.7;;;;;;;11.02;100;95837.42;;;;
2019/09/06 02:57:13;;;;;;;5.45;4.7;;;;;;;11.02;100;95837.42;;;;
2019/09/06 02:58:14;;;;;;;5.45;4.7;;;;;;;11.02;100;95837.42;;;;
2019/09/06 02:59:15;;;;;;;5.45;4.7;;;;;;;11.02;100;95837.42;;;;
2019/09/06 03:00:17;;;;;;;5.45;4.7;;;;;;;11.02;100;95837.42;;;;
2019/09/06 03:01:19;;;;;;;5.45;4.7;;;;;;;11.02;100;95837.42;;;;
2019/09/06 03:02:20;;;;;;;5.45;4.7;;;;;;;11.02;100;95837.42;;;;
2019/09/06 03:03:21;;;;;;;5.45;4.7;;;;;;;11.02;100;95837.42;;;;
2019/09/06 03:04:22;;;;;;;5.45;4.7;;;;;;;11.02;100;95837.42;;;;
2019/09/06 03:05:23;;;;;;;6.399999;4.8;;;;;;;11.01;100;95853.74;;;;
2019/09/06 03:06:25;;;;;;;6.399999;4.8;;;;;;;11.01;100;95853.74;;;;
2019/09/06 03:07:27;;;;;;;6.399999;4.8;;;;;;;11.01;100;95853.74;;;;
2019/09/06 03:08:28;;;;;;;6.399999;4.8;;;;;;;11.01;100;95853.74;;;;
2019/09/06 03:09:29;;;;;;;6.399999;4.8;;;;;;;11.01;100;95853.74;;;;
2019/09/06 03:10:30;;;;;;;6.399999;4.8;;;;;;;11.01;100;95853.74;;;;
2019/09/06 03:11:32;;;;;;;6.399999;4.8;;;;;;;11.01;100;95853.74;;;;
2019/09/06 03:12:33;;;;;;;6.399999;4.8;;;;;;;11.01;100;95853.74;;;;
2019/09/06 03:13:35;;;;;;;6.399999;4.8;;;;;;;11.01;100;95853.74;;;;
2019/09/06 03:14:36;;;;;;;6.399999;4.8;;;;;;;11.01;100;95853.74;;;;
2019/09/06 03:15:37;;;;;;;6.05;5.45;;;;;;;11.08;100;95842.86;;;;
2019/09/06 03:16:39;;;;;;;6.05;5.45;;;;;;;11.08;100;95842.86;;;;
2019/09/06 03:17:40;;;;;;;6.05;5.45;;;;;;;11.08;100;95842.86;;;;
2019/09/06 03:18:41;;;;;;;6.05;5.45;;;;;;;11.08;100;95842.86;;;;
2019/09/06 03:19:42;;;;;;;6.05;5.45;;;;;;;11.08;100;95842.86;;;;
2019/09/06 03:20:43;;;;;;;6.05;5.45;;;;;;;11.08;100;95842.86;;;;
2019/09/06 03:21:44;;;;;;;6.05;5.45;;;;;;;11.08;100;95842.86;;;;
2019/09/06 03:22:46;;;;;;;6.05;5.45;;;;;;;11.08;100;95842.86;;;;
2019/09/06 03:23:47;;;;;;;6.05;5.45;;;;;;;11.08;100;95842.86;;;;
2019/09/06 03:24:48;;;;;;;6.05;5.45;;;;;;;11.08;100;95842.86;;;;
2019/09/06 03:25:49;;;;;;;5.699999;5.05;;;;;;;11.04;100;95832.09;;;;
2019/09/06 03:26:51;;;;;;;5.699999;5.05;;;;;;;11.04;100;95832.09;;;;
2019/09/06 03:27:52;;;;;;;5.699999;5.05;;;;;;;11.04;100;95832.09;;;;
2019/09/06 03:28:53;;;;;;;5.699999;5.05;;;;;;;11.04;100;95832.09;;;;
2019/09/06 03:29:54;;;;;;;5.699999;5.05;;;;;;;11.04;100;95832.09;;;;
2019/09/06 03:30:55;;;;;;;5.699999;5.05;;;;;;;11.04;100;95832.09;;;;
2019/09/06 03:31:56;;;;;;;5.699999;5.05;;;;;;;11.04;100;95832.09;;;;
2019/09/06 03:32:58;;;;;;;5.699999;5.05;;;;;;;11.04;100;95832.09;;;;
2019/09/06 03:33:59;;;;;;;5.699999;5.05;;;;;;;11.04;100;95832.09;;;;
2019/09/06 03:35:00;;;;;;;5.699999;5.05;;;;;;;11.04;100;95832.09;;;;
2019/09/06 03:36:02;;;;;;;5.699999;5.05;;;;;;;11.04;100;95832.09;;;;
2019/09/06 03:37:03;;;;;;;6.45;5.4;;;;;;;11.07;100;95818.64;;;;
2019/09/06 03:38:04;;;;;;;6.45;5.4;;;;;;;11.07;100;95818.64;;;;
2019/09/06 03:39:06;;;;;;;6.45;5.4;;;;;;;11.07;100;95818.64;;;;
2019/09/06 03:40:08;;;;;;;6.45;5.4;;;;;;;11.07;100;95818.64;;;;
2019/09/06 03:41:10;;;;;;;6.45;5.4;;;;;;;11.07;100;95818.64;;;;
2019/09/06 03:42:11;;;;;;;6.45;5.4;;;;;;;11.07;100;95818.64;;;;
2019/09/06 03:43:12;;;;;;;6.45;5.4;;;;;;;11.07;100;95818.64;;;;
2019/09/06 03:44:13;;;;;;;6.45;5.4;;;;;;;11.07;100;95818.64;;;;
2019/09/06 03:45:14;;;;;;;6.45;5.4;;;;;;;11.07;100;95818.64;;;;
2019/09/06 03:46:17;;;;;;;6.45;5.4;;;;;;;11.07;100;95818.64;;;;
2019/09/06 03:47:18;;;;;;;5.749999;5.15;;;;;;;10.99;100;95818.41;;;;
2019/09/06 03:48:19;;;;;;;5.749999;5.15;;;;;;;10.99;100;95818.41;;;;
2019/09/06 03:49:20;;;;;;;5.749999;5.15;;;;;;;10.99;100;95818.41;;;;
2019/09/06 03:50:22;;;;;;;5.749999;5.15;;;;;;;10.99;100;95818.41;;;;
2019/09/06 03:51:24;;;;;;;5.749999;5.15;;;;;;;10.99;100;95818.41;;;;
2019/09/06 03:52:26;;;;;;;5.749999;5.15;;;;;;;10.99;100;95818.41;;;;
2019/09/06 03:53:27;;;;;;;5.749999;5.15;;;;;;;10.99;100;95818.41;;;;
2019/09/06 03:54:28;;;;;;;5.749999;5.15;;;;;;;10.99;100;95818.41;;;;
2019/09/06 03:55:29;;;;;;;5.749999;5.15;;;;;;;10.99;100;95818.41;;;;
2019/09/06 03:56:31;;;;;;;5.749999;5.15;;;;;;;10.99;100;95818.41;;;;
2019/09/06 03:57:32;;;;;;;5.8;5.2;;;;;;;11;100;95807.09;;;;
2019/09/06 03:58:33;;;;;;;5.8;5.2;;;;;;;11;100;95807.09;;;;
2019/09/06 03:59:35;;;;;;;5.8;5.2;;;;;;;11;100;95807.09;;;;
2019/09/06 04:00:36;;;;;;;5.8;5.2;;;;;;;11;100;95807.09;;;;
2019/09/06 04:01:39;;;;;;;5.8;5.2;;;;;;;11;100;95807.09;;;;
2019/09/06 04:02:40;;;;;;;5.8;5.2;;;;;;;11;100;95807.09;;;;
2019/09/06 04:03:48;;;;;;;5.8;5.2;;;;;;;11;100;95807.09;;;;
2019/09/06 04:04:49;;;;;;;5.8;5.2;;;;;;;11;100;95807.09;;;;
2019/09/06 04:05:50;;;;;;;5.8;5.2;;;;;;;11;100;95807.09;;;;
2019/09/06 04:06:51;;;;;;;5.8;5.2;;;;;;;11;100;95807.09;;;;
2019/09/06 04:07:52;;;;;;;5.8;5.2;;;;;;;11;100;95807.09;;;;
2019/09/06 04:08:53;;;;;;;6.299999;5.65;;;;;;;10.94;100;95800.7;;;;
2019/09/06 04:09:54;;;;;;;6.299999;5.65;;;;;;;10.94;100;95800.7;;;;
2019/09/06 04:10:56;;;;;;;6.299999;5.65;;;;;;;10.94;100;95800.7;;;;
2019/09/06 04:11:57;;;;;;;6.299999;5.65;;;;;;;10.94;100;95800.7;;;;
2019/09/06 04:12:58;;;;;;;6.299999;5.65;;;;;;;10.94;100;95800.7;;;;
2019/09/06 04:13:59;;;;;;;6.299999;5.65;;;;;;;10.94;100;95800.7;;;;
2019/09/06 04:15:00;;;;;;;6.299999;5.65;;;;;;;10.94;100;95800.7;;;;
2019/09/06 04:16:03;;;;;;;6.299999;5.65;;;;;;;10.94;100;95800.7;;;;
2019/09/06 04:17:04;;;;;;;6.299999;5.65;;;;;;;10.94;100;95800.7;;;;
2019/09/06 04:18:05;;;;;;;6.299999;5.65;;;;;;;10.94;100;95800.7;;;;
2019/09/06 04:19:07;;;;;;;6;5.4;;;;;;;10.97;100;95803.36;;;;
2019/09/06 04:20:08;;;;;;;6;5.4;;;;;;;10.97;100;95803.36;;;;
2019/09/06 04:21:10;;;;;;;6;5.4;;;;;;;10.97;100;95803.36;;;;
2019/09/06 04:22:11;;;;;;;6;5.4;;;;;;;10.97;100;95803.36;;;;
2019/09/06 04:23:12;;;;;;;6;5.4;;;;;;;10.97;100;95803.36;;;;
2019/09/06 04:24:14;;;;;;;6;5.4;;;;;;;10.97;100;95803.36;;;;
2019/09/06 04:25:15;;;;;;;6;5.4;;;;;;;10.97;100;95803.36;;;;
2019/09/06 04:26:17;;;;;;;6;5.4;;;;;;;10.97;100;95803.36;;;;
2019/09/06 04:27:18;;;;;;;6;5.4;;;;;;;10.97;100;95803.36;;;;
2019/09/06 04:28:19;;;;;;;6;5.4;;;;;;;10.97;100;95803.36;;;;
2019/09/06 04:29:21;;;;;;;6.150001;5.15;;;;;;;10.95;100;95823.16;;;;
2019/09/06 04:30:22;;;;;;;6.150001;5.15;;;;;;;10.95;100;95823.16;;;;
2019/09/06 04:31:26;;;;;;;6.150001;5.15;;;;;;;10.95;100;95823.16;;;;
2019/09/06 04:32:27;;;;;;;6.150001;5.15;;;;;;;10.95;100;95823.16;;;;
2019/09/06 04:33:28;;;;;;;6.150001;5.15;;;;;;;10.95;100;95823.16;;;;
2019/09/06 04:34:30;;;;;;;6.150001;5.15;;;;;;;10.95;100;95823.16;;;;
2019/09/06 04:35:31;;;;;;;6.150001;5.15;;;;;;;10.95;100;95823.16;;;;
2019/09/06 04:36:33;;;;;;;6.150001;5.15;;;;;;;10.95;100;95823.16;;;;
2019/09/06 04:37:34;;;;;;;6.150001;5.15;;;;;;;10.95;100;95823.16;;;;
2019/09/06 04:38:35;;;;;;;6.150001;5.15;;;;;;;10.95;100;95823.16;;;;
2019/09/06 04:39:36;;;;;;;6.150001;5.15;;;;;;;10.95;100;95823.16;;;;
2019/09/06 04:40:38;;;;;;;6.349999;5.550001;;;;;;;10.98;100;95817.71;;;;
2019/09/06 04:41:41;;;;;;;6.349999;5.550001;;;;;;;10.98;100;95817.71;;;;
2019/09/06 04:42:42;;;;;;;6.349999;5.550001;;;;;;;10.98;100;95817.71;;;;
2019/09/06 04:43:43;;;;;;;6.349999;5.550001;;;;;;;10.98;100;95817.71;;;;
2019/09/06 04:44:44;;;;;;;6.349999;5.550001;;;;;;;10.98;100;95817.71;;;;
2019/09/06 04:45:45;;;;;;;6.349999;5.550001;;;;;;;10.98;100;95817.71;;;;
2019/09/06 04:46:47;;;;;;;6.349999;5.550001;;;;;;;10.98;100;95817.71;;;;
2019/09/06 04:47:48;;;;;;;6.349999;5.550001;;;;;;;10.98;100;95817.71;;;;
2019/09/06 04:48:49;;;;;;;6.349999;5.550001;;;;;;;10.98;100;95817.71;;;;
2019/09/06 04:49:50;;;;;;;6.349999;5.550001;;;;;;;10.98;100;95817.71;;;;
2019/09/06 04:50:51;;;;;;;7.550001;5.75;;;;;;;10.96;100;95809.84;;;;
2019/09/06 04:51:53;;;;;;;7.550001;5.75;;;;;;;10.96;100;95809.84;;;;
2019/09/06 04:52:54;;;;;;;7.550001;5.75;;;;;;;10.96;100;95809.84;;;;
2019/09/06 04:53:55;;;;;;;7.550001;5.75;;;;;;;10.96;100;95809.84;;;;
2019/09/06 04:54:56;;;;;;;7.550001;5.75;;;;;;;10.96;100;95809.84;;;;
2019/09/06 04:55:57;;;;;;;7.550001;5.75;;;;;;;10.96;100;95809.84;;;;
2019/09/06 04:56:58;;;;;;;7.550001;5.75;;;;;;;10.96;100;95809.84;;;;
2019/09/06 04:57:59;;;;;;;7.550001;5.75;;;;;;;10.96;100;95809.84;;;;
2019/09/06 04:59:01;;;;;;;7.550001;5.75;;;;;;;10.96;100;95809.84;;;;
2019/09/06 05:00:02;;;;;;;7.550001;5.75;;;;;;;10.96;100;95809.84;;;;
2019/09/06 05:01:04;;;;;;;7.550001;5.75;;;;;;;10.96;100;95809.84;;;;
2019/09/06 05:02:05;;;;;;;6.6;5.95;;;;;;;11.02;100;95802.7;;;;
2019/09/06 05:03:06;;;;;;;6.6;5.95;;;;;;;11.02;100;95802.7;;;;
2019/09/06 05:04:08;;;;;;;6.6;5.95;;;;;;;11.02;100;95802.7;;;;
2019/09/06 05:05:09;;;;;;;6.6;5.95;;;;;;;11.02;100;95802.7;;;;
2019/09/06 05:06:11;;;;;;;6.6;5.95;;;;;;;11.02;100;95802.7;;;;
2019/09/06 05:07:12;;;;;;;6.6;5.95;;;;;;;11.02;100;95802.7;;;;
2019/09/06 05:08:13;;;;;;;6.6;5.95;;;;;;;11.02;100;95802.7;;;;
2019/09/06 05:09:15;;;;;;;6.6;5.95;;;;;;;11.02;100;95802.7;;;;
2019/09/06 05:10:16;;;;;;;6.6;5.95;;;;;;;11.02;100;95802.7;;;;
2019/09/06 05:11:17;;;;;;;6.6;5.95;;;;;;;11.02;100;95802.7;;;;
2019/09/06 05:12:19;;;;;;;9.799999;7.15;;;;;;;11.04;100;95806.81;;;;
2019/09/06 05:13:20;;;;;;;9.799999;7.15;;;;;;;11.04;100;95806.81;;;;
2019/09/06 05:14:21;;;;;;;9.799999;7.15;;;;;;;11.04;100;95806.81;;;;
2019/09/06 05:15:22;;;;;;;9.799999;7.15;;;;;;;11.04;100;95806.81;;;;
2019/09/06 05:16:24;;;;;;;9.799999;7.15;;;;;;;11.04;100;95806.81;;;;
2019/09/06 05:17:25;;;;;;;9.799999;7.15;;;;;;;11.04;100;95806.81;;;;
2019/09/06 05:18:26;;;;;;;9.799999;7.15;;;;;;;11.04;100;95806.81;;;;
2019/09/06 05:19:27;;;;;;;9.799999;7.15;;;;;;;11.04;100;95806.81;;;;
2019/09/06 05:20:29;;;;;;;9.799999;7.15;;;;;;;11.04;100;95806.81;;;;
2019/09/06 05:21:31;;;;;;;9.799999;7.15;;;;;;;11.04;100;95806.81;;;;
2019/09/06 05:22:33;;;;;;;8.099999;7.199999;;;;;;;11.17;100;95806.37;;;;
2019/09/06 05:23:34;;;;;;;8.099999;7.199999;;;;;;;11.17;100;95806.37;;;;
2019/09/06 05:24:35;;;;;;;8.099999;7.199999;;;;;;;11.17;100;95806.37;;;;
2019/09/06 05:25:36;;;;;;;8.099999;7.199999;;;;;;;11.17;100;95806.37;;;;
2019/09/06 05:26:42;;;;;;;8.099999;7.199999;;;;;;;11.17;100;95806.37;;;;
2019/09/06 05:27:43;;;;;;;8.099999;7.199999;;;;;;;11.17;100;95806.37;;;;
2019/09/06 05:28:44;;;;;;;8.099999;7.199999;;;;;;;11.17;100;95806.37;;;;
2019/09/06 05:29:45;;;;;;;8.099999;7.199999;;;;;;;11.17;100;95806.37;;;;
2019/09/06 05:30:46;;;;;;;8.099999;7.199999;;;;;;;11.17;100;95806.37;;;;
2019/09/06 05:31:50;;;;;;;8.099999;7.199999;;;;;;;11.17;100;95806.37;;;;
2019/09/06 05:32:51;;;;;;;8.099999;7.199999;;;;;;;11.17;100;95806.37;;;;
2019/09/06 05:33:52;;;;;;;9.099999;8.2;;;;;;;11.3;100;95807.58;;;;
2019/09/06 05:34:53;;;;;;;9.099999;8.2;;;;;;;11.3;100;95807.58;;;;
2019/09/06 05:35:55;;;;;;;9.099999;8.2;;;;;;;11.3;100;95807.58;;;;
2019/09/06 05:36:56;;;;;;;9.099999;8.2;;;;;;;11.3;100;95807.58;;;;
2019/09/06 05:37:57;;;;;;;9.099999;8.2;;;;;;;11.3;100;95807.58;;;;
2019/09/06 05:38:58;;;;;;;9.099999;8.2;;;;;;;11.3;100;95807.58;;;;
2019/09/06 05:39:59;;;;;;;9.099999;8.2;;;;;;;11.3;100;95807.58;;;;
2019/09/06 05:41:00;;;;;;;9.099999;8.2;;;;;;;11.3;100;95807.58;;;;
2019/09/06 05:42:01;;;;;;;9.099999;8.2;;;;;;;11.3;100;95807.58;;;;
2019/09/06 05:43:03;;;;;;;9.099999;8.2;;;;;;;11.3;100;95807.58;;;;
2019/09/06 05:44:04;;;;;;;9.899999;8.25;;;;;;;11.53;100;95802.26;;;;
2019/09/06 05:45:05;;;;;;;9.899999;8.25;;;;;;;11.53;100;95802.26;;;;
2019/09/06 05:46:08;;;;;;;9.899999;8.25;;;;;;;11.53;100;95802.26;;;;
2019/09/06 05:47:09;;;;;;;9.899999;8.25;;;;;;;11.53;100;95802.26;;;;
2019/09/06 05:48:11;;;;;;;9.899999;8.25;;;;;;;11.53;100;95802.26;;;;
2019/09/06 05:49:12;;;;;;;9.899999;8.25;;;;;;;11.53;100;95802.26;;;;
2019/09/06 05:50:13;;;;;;;9.899999;8.25;;;;;;;11.53;100;95802.26;;;;
2019/09/06 05:51:15;;;;;;;9.899999;8.25;;;;;;;11.53;100;95802.26;;;;
2019/09/06 05:52:16;;;;;;;9.899999;8.25;;;;;;;11.53;100;95802.26;;;;
2019/09/06 05:53:18;;;;;;;9.899999;8.25;;;;;;;11.53;100;95802.26;;;;
2019/09/06 05:54:19;;;;;;;9.549999;8.549999;;;;;;;11.75;100;95813.86;;;;
2019/09/06 05:55:20;;;;;;;9.549999;8.549999;;;;;;;11.75;100;95813.86;;;;
2019/09/06 05:56:24;;;;;;;9.549999;8.549999;;;;;;;11.75;100;95813.86;;;;
2019/09/06 05:57:25;;;;;;;9.549999;8.549999;;;;;;;11.75;100;95813.86;;;;
2019/09/06 05:58:26;;;;;;;9.549999;8.549999;;;;;;;11.75;100;95813.86;;;;
2019/09/06 05:59:27;;;;;;;9.549999;8.549999;;;;;;;11.75;100;95813.86;;;;
2019/09/06 06:00:28;;;;;;;9.549999;8.549999;;;;;;;11.75;100;95813.86;;;;
2019/09/06 06:01:31;;;;;;;9.549999;8.549999;;;;;;;11.75;100;95813.86;;;;
2019/09/06 06:02:32;;;;;;;9.549999;8.549999;;;;;;;11.75;100;95813.86;;;;
2019/09/06 06:03:33;;;;;;;9.549999;8.549999;;;;;;;11.75;100;95813.86;;;;